sensor_id;sensor_type;location;lat;lon;timestamp;temperature;humidity
43671;DHT22;29267;50.906;7.248;2024-02-14T00:01:48;7.30;99.90
43671;DHT22;29267;50.906;7.248;2024-02-14T00:04:14;7.30;99.90
43671;DHT22;29267;50.906;7.248;2024-02-14T00:06:40;7.40;99.90
43671;DHT22;29267;50.906;7.248;2024-02-14T00:09:05;7.40;99.90
43671;DHT22;29267;50.906;7.248;2024-02-14T00:11:32;7.50;99.90
43671;DHT22;29267;50.906;7.248;2024-02-14T00:13:58;7.50;99.90
43671;DHT22;29267;50.906;7.248;2024-02-14T00:16:25;7.50;99.90
43671;DHT22;29267;50.906;7.248;2024-02-14T00:18:51;7.50;99.90
43671;DHT22;29267;50.906;7.248;2024-02-14T00:21:16;7.50;99.90
43671;DHT22;29267;50.906;7.248;2024-02-14T00:23:42;7.50;99.90
43671;DHT22;29267;50.906;7.248;2024-02-14T00:26:09;7.60;99.90
43671;DHT22;29267;50.906;7.248;2024-02-14T00:28:34;7.60;99.90
43671;DHT22;29267;50.906;7.248;2024-02-14T00:31:00;7.60;99.90
43671;DHT22;29267;50.906;7.248;2024-02-14T00:33:25;7.60;99.90
43671;DHT22;29267;50.906;7.248;2024-02-14T00:35:51;7.60;99.90
43671;DHT22;29267;50.906;7.248;2024-02-14T00:38:17;7.70;99.90
43671;DHT22;29267;50.906;7.248;2024-02-14T00:40:43;7.70;99.90
43671;DHT22;29267;50.906;7.248;2024-02-14T00:43:08;7.70;99.90
43671;DHT22;29267;50.906;7.248;2024-02-14T00:45:34;7.70;99.90
43671;DHT22;29267;50.906;7.248;2024-02-14T00:48:01;7.70;99.90
43671;DHT22;29267;50.906;7.248;2024-02-14T00:50:29;7.70;99.90
43671;DHT22;29267;50.906;7.248;2024-02-14T00:52:54;7.80;99.90
43671;DHT22;29267;50.906;7.248;2024-02-14T00:55:20;7.70;99.90
43671;DHT22;29267;50.906;7.248;2024-02-14T00:57:45;7.70;99.90
43671;DHT22;29267;50.906;7.248;2024-02-14T01:00:11;7.70;99.90
43671;DHT22;29267;50.906;7.248;2024-02-14T01:02:37;7.70;99.90
43671;DHT22;29267;50.906;7.248;2024-02-14T01:05:02;7.70;99.90
43671;DHT22;29267;50.906;7.248;2024-02-14T01:07:29;7.70;99.90
43671;DHT22;29267;50.906;7.248;2024-02-14T01:09:55;7.70;99.90
43671;DHT22;29267;50.906;7.248;2024-02-14T01:12:20;7.70;99.90
43671;DHT22;29267;50.906;7.248;2024-02-14T01:14:46;7.70;99.90
43671;DHT22;29267;50.906;7.248;2024-02-14T01:17:12;7.60;99.90
43671;DHT22;29267;50.906;7.248;2024-02-14T01:19:37;7.60;99.90
43671;DHT22;29267;50.906;7.248;2024-02-14T01:22:03;7.60;99.90
43671;DHT22;29267;50.906;7.248;2024-02-14T01:24:28;7.60;99.90
43671;DHT22;29267;50.906;7.248;2024-02-14T01:26:55;7.60;99.90
43671;DHT22;29267;50.906;7.248;2024-02-14T01:29:21;7.50;99.90
43671;DHT22;29267;50.906;7.248;2024-02-14T01:31:48;7.50;99.90
43671;DHT22;29267;50.906;7.248;2024-02-14T01:34:15;7.50;99.90
43671;DHT22;29267;50.906;7.248;2024-02-14T01:36:41;7.50;99.90
43671;DHT22;29267;50.906;7.248;2024-02-14T01:39:06;7.50;99.90
43671;DHT22;29267;50.906;7.248;2024-02-14T01:41:37;7.50;99.90
43671;DHT22;29267;50.906;7.248;2024-02-14T01:44:03;7.60;99.90
43671;DHT22;29267;50.906;7.248;2024-02-14T01:46:29;7.50;99.90
43671;DHT22;29267;50.906;7.248;2024-02-14T01:48:55;7.50;99.90
43671;DHT22;29267;50.906;7.248;2024-02-14T01:51:22;7.60;99.90
43671;DHT22;29267;50.906;7.248;2024-02-14T01:53:53;7.60;99.90
43671;DHT22;29267;50.906;7.248;2024-02-14T01:56:18;7.60;99.90
43671;DHT22;29267;50.906;7.248;2024-02-14T01:58:44;7.60;99.90
43671;DHT22;29267;50.906;7.248;2024-02-14T02:01:11;7.60;99.90
43671;DHT22;29267;50.906;7.248;2024-02-14T02:03:37;7.70;99.90
43671;DHT22;29267;50.906;7.248;2024-02-14T02:06:05;7.70;99.90
43671;DHT22;29267;50.906;7.248;2024-02-14T02:08:31;7.70;99.90
43671;DHT22;29267;50.906;7.248;2024-02-14T02:10:58;7.70;99.90
43671;DHT22;29267;50.906;7.248;2024-02-14T02:13:23;7.70;99.90
43671;DHT22;29267;50.906;7.248;2024-02-14T02:15:52;7.70;99.90
43671;DHT22;29267;50.906;7.248;2024-02-14T02:18:18;7.80;99.90
43671;DHT22;29267;50.906;7.248;2024-02-14T02:20:45;7.80;99.90
43671;DHT22;29267;50.906;7.248;2024-02-14T02:23:13;7.80;99.90
43671;DHT22;29267;50.906;7.248;2024-02-14T02:25:42;7.80;99.90
43671;DHT22;29267;50.906;7.248;2024-02-14T02:28:08;7.80;99.90
43671;DHT22;29267;50.906;7.248;2024-02-14T02:30:35;7.80;99.90
43671;DHT22;29267;50.906;7.248;2024-02-14T02:33:01;7.80;99.90
43671;DHT22;29267;50.906;7.248;2024-02-14T02:35:28;7.80;99.90
43671;DHT22;29267;50.906;7.248;2024-02-14T02:37:53;7.80;99.90
43671;DHT22;29267;50.906;7.248;2024-02-14T02:40:19;7.90;99.90
43671;DHT22;29267;50.906;7.248;2024-02-14T02:42:47;7.90;99.90
43671;DHT22;29267;50.906;7.248;2024-02-14T02:45:12;7.90;99.90
43671;DHT22;29267;50.906;7.248;2024-02-14T02:47:38;7.90;99.90
43671;DHT22;29267;50.906;7.248;2024-02-14T02:50:05;7.90;99.90
43671;DHT22;29267;50.906;7.248;2024-02-14T02:52:31;7.90;99.90
43671;DHT22;29267;50.906;7.248;2024-02-14T02:54:57;7.90;99.90
43671;DHT22;29267;50.906;7.248;2024-02-14T02:57:22;7.90;99.90
43671;DHT22;29267;50.906;7.248;2024-02-14T02:59:48;8.00;99.90
43671;DHT22;29267;50.906;7.248;2024-02-14T03:02:16;8.00;99.90
43671;DHT22;29267;50.906;7.248;2024-02-14T03:04:41;8.00;99.90
43671;DHT22;29267;50.906;7.248;2024-02-14T03:07:08;8.00;99.90
43671;DHT22;29267;50.906;7.248;2024-02-14T03:09:37;8.00;99.90
43671;DHT22;29267;50.906;7.248;2024-02-14T03:12:03;8.00;99.90
43671;DHT22;29267;50.906;7.248;2024-02-14T03:14:32;8.00;99.90
43671;DHT22;29267;50.906;7.248;2024-02-14T03:17:02;8.00;99.90
43671;DHT22;29267;50.906;7.248;2024-02-14T03:19:28;8.00;99.90
43671;DHT22;29267;50.906;7.248;2024-02-14T03:21:55;8.00;99.90
43671;DHT22;29267;50.906;7.248;2024-02-14T03:24:21;8.00;99.90
43671;DHT22;29267;50.906;7.248;2024-02-14T03:26:47;8.00;99.90
43671;DHT22;29267;50.906;7.248;2024-02-14T03:29:13;8.00;99.90
43671;DHT22;29267;50.906;7.248;2024-02-14T03:31:39;8.00;99.90
43671;DHT22;29267;50.906;7.248;2024-02-14T03:34:04;8.00;99.90
43671;DHT22;29267;50.906;7.248;2024-02-14T03:36:30;8.10;99.90
43671;DHT22;29267;50.906;7.248;2024-02-14T03:38:58;8.00;99.90
43671;DHT22;29267;50.906;7.248;2024-02-14T03:41:24;8.00;99.90
43671;DHT22;29267;50.906;7.248;2024-02-14T03:43:49;8.10;99.90
43671;DHT22;29267;50.906;7.248;2024-02-14T03:46:16;8.00;99.90
43671;DHT22;29267;50.906;7.248;2024-02-14T03:48:45;8.00;99.90
43671;DHT22;29267;50.906;7.248;2024-02-14T03:51:13;8.00;99.90
43671;DHT22;29267;50.906;7.248;2024-02-14T03:53:39;8.00;99.90
43671;DHT22;29267;50.906;7.248;2024-02-14T03:56:05;8.10;99.90
43671;DHT22;29267;50.906;7.248;2024-02-14T03:58:32;8.10;99.90
43671;DHT22;29267;50.906;7.248;2024-02-14T04:01:05;8.10;99.90
43671;DHT22;29267;50.906;7.248;2024-02-14T04:03:31;8.10;99.90
43671;DHT22;29267;50.906;7.248;2024-02-14T04:05:57;8.10;99.90
43671;DHT22;29267;50.906;7.248;2024-02-14T04:08:23;8.10;99.90
43671;DHT22;29267;50.906;7.248;2024-02-14T04:10:49;8.00;99.90
43671;DHT22;29267;50.906;7.248;2024-02-14T04:13:20;8.10;99.90
43671;DHT22;29267;50.906;7.248;2024-02-14T04:15:46;8.10;99.90
43671;DHT22;29267;50.906;7.248;2024-02-14T04:18:12;8.10;99.90
43671;DHT22;29267;50.906;7.248;2024-02-14T04:20:38;8.10;99.90
43671;DHT22;29267;50.906;7.248;2024-02-14T04:23:04;8.00;99.90
43671;DHT22;29267;50.906;7.248;2024-02-14T04:25:32;8.00;99.90
43671;DHT22;29267;50.906;7.248;2024-02-14T04:27:58;8.00;99.90
43671;DHT22;29267;50.906;7.248;2024-02-14T04:30:24;8.00;99.90
43671;DHT22;29267;50.906;7.248;2024-02-14T04:32:50;8.00;99.90
43671;DHT22;29267;50.906;7.248;2024-02-14T04:35:19;8.10;99.90
43671;DHT22;29267;50.906;7.248;2024-02-14T04:37:45;8.10;99.90
43671;DHT22;29267;50.906;7.248;2024-02-14T04:40:12;8.10;99.90
43671;DHT22;29267;50.906;7.248;2024-02-14T04:42:38;8.10;99.90
43671;DHT22;29267;50.906;7.248;2024-02-14T04:45:04;8.10;99.90
43671;DHT22;29267;50.906;7.248;2024-02-14T04:47:29;8.10;99.90
43671;DHT22;29267;50.906;7.248;2024-02-14T04:49:55;8.10;99.90
43671;DHT22;29267;50.906;7.248;2024-02-14T04:52:21;8.10;99.90
43671;DHT22;29267;50.906;7.248;2024-02-14T04:54:46;8.20;99.90
43671;DHT22;29267;50.906;7.248;2024-02-14T04:57:12;8.10;99.90
43671;DHT22;29267;50.906;7.248;2024-02-14T04:59:38;8.20;99.90
43671;DHT22;29267;50.906;7.248;2024-02-14T05:02:04;8.20;99.90
43671;DHT22;29267;50.906;7.248;2024-02-14T05:04:29;8.20;99.90
43671;DHT22;29267;50.906;7.248;2024-02-14T05:06:55;8.20;99.90
43671;DHT22;29267;50.906;7.248;2024-02-14T05:09:20;8.20;99.90
43671;DHT22;29267;50.906;7.248;2024-02-14T05:11:46;8.20;99.90
43671;DHT22;29267;50.906;7.248;2024-02-14T05:14:12;8.20;99.90
43671;DHT22;29267;50.906;7.248;2024-02-14T05:16:37;8.20;99.90
43671;DHT22;29267;50.906;7.248;2024-02-14T05:19:03;8.20;99.90
43671;DHT22;29267;50.906;7.248;2024-02-14T05:21:28;8.30;99.90
43671;DHT22;29267;50.906;7.248;2024-02-14T05:23:55;8.30;99.90
43671;DHT22;29267;50.906;7.248;2024-02-14T05:26:20;8.30;99.90
43671;DHT22;29267;50.906;7.248;2024-02-14T05:28:46;8.30;99.90
43671;DHT22;29267;50.906;7.248;2024-02-14T05:31:12;8.30;99.90
43671;DHT22;29267;50.906;7.248;2024-02-14T05:33:37;8.30;99.90
43671;DHT22;29267;50.906;7.248;2024-02-14T05:36:03;8.30;99.90
43671;DHT22;29267;50.906;7.248;2024-02-14T05:38:28;8.30;99.90
43671;DHT22;29267;50.906;7.248;2024-02-14T05:40:55;8.30;99.90
43671;DHT22;29267;50.906;7.248;2024-02-14T05:43:21;8.40;99.90
43671;DHT22;29267;50.906;7.248;2024-02-14T05:45:47;8.30;99.90
43671;DHT22;29267;50.906;7.248;2024-02-14T05:48:13;8.40;99.90
43671;DHT22;29267;50.906;7.248;2024-02-14T05:50:40;8.40;99.90
43671;DHT22;29267;50.906;7.248;2024-02-14T05:53:05;8.40;99.90
43671;DHT22;29267;50.906;7.248;2024-02-14T05:55:31;8.40;99.90
43671;DHT22;29267;50.906;7.248;2024-02-14T05:57:57;8.40;99.90
43671;DHT22;29267;50.906;7.248;2024-02-14T06:00:24;8.40;99.90
43671;DHT22;29267;50.906;7.248;2024-02-14T06:02:51;8.40;99.90
43671;DHT22;29267;50.906;7.248;2024-02-14T06:05:17;8.40;99.90
43671;DHT22;29267;50.906;7.248;2024-02-14T06:07:43;8.40;99.90
43671;DHT22;29267;50.906;7.248;2024-02-14T06:10:10;8.40;99.90
43671;DHT22;29267;50.906;7.248;2024-02-14T06:12:36;8.40;99.90
43671;DHT22;29267;50.906;7.248;2024-02-14T06:15:02;8.40;99.90
43671;DHT22;29267;50.906;7.248;2024-02-14T06:17:27;8.40;99.90
43671;DHT22;29267;50.906;7.248;2024-02-14T06:19:53;8.30;99.90
43671;DHT22;29267;50.906;7.248;2024-02-14T06:22:19;8.40;99.90
43671;DHT22;29267;50.906;7.248;2024-02-14T06:24:46;8.30;99.90
43671;DHT22;29267;50.906;7.248;2024-02-14T06:27:14;8.20;99.90
43671;DHT22;29267;50.906;7.248;2024-02-14T06:29:42;8.20;99.90
43671;DHT22;29267;50.906;7.248;2024-02-14T06:32:08;8.20;99.90
43671;DHT22;29267;50.906;7.248;2024-02-14T06:34:33;8.10;99.90
43671;DHT22;29267;50.906;7.248;2024-02-14T06:36:59;8.10;99.90
43671;DHT22;29267;50.906;7.248;2024-02-14T06:39:24;8.10;99.90
43671;DHT22;29267;50.906;7.248;2024-02-14T06:41:50;8.10;99.90
43671;DHT22;29267;50.906;7.248;2024-02-14T06:44:16;8.00;99.90
43671;DHT22;29267;50.906;7.248;2024-02-14T06:46:41;8.10;99.90
43671;DHT22;29267;50.906;7.248;2024-02-14T06:49:08;8.00;99.90
43671;DHT22;29267;50.906;7.248;2024-02-14T06:51:34;8.00;99.90
43671;DHT22;29267;50.906;7.248;2024-02-14T06:53:59;8.00;99.90
43671;DHT22;29267;50.906;7.248;2024-02-14T06:56:25;8.10;99.90
43671;DHT22;29267;50.906;7.248;2024-02-14T06:58:51;8.10;99.90
43671;DHT22;29267;50.906;7.248;2024-02-14T07:01:19;8.00;99.90
43671;DHT22;29267;50.906;7.248;2024-02-14T07:03:48;8.00;99.90
43671;DHT22;29267;50.906;7.248;2024-02-14T07:06:14;8.10;99.90
43671;DHT22;29267;50.906;7.248;2024-02-14T07:08:43;8.10;99.90
43671;DHT22;29267;50.906;7.248;2024-02-14T07:11:08;8.10;99.90
43671;DHT22;29267;50.906;7.248;2024-02-14T07:13:34;8.10;99.90
43671;DHT22;29267;50.906;7.248;2024-02-14T07:16:00;8.20;99.90
43671;DHT22;29267;50.906;7.248;2024-02-14T07:18:25;8.20;99.90
43671;DHT22;29267;50.906;7.248;2024-02-14T07:20:51;8.20;99.90
43671;DHT22;29267;50.906;7.248;2024-02-14T07:23:18;8.20;99.90
43671;DHT22;29267;50.906;7.248;2024-02-14T07:25:44;8.30;99.90
43671;DHT22;29267;50.906;7.248;2024-02-14T07:28:10;8.30;99.90
43671;DHT22;29267;50.906;7.248;2024-02-14T07:30:36;8.30;99.90
43671;DHT22;29267;50.906;7.248;2024-02-14T07:33:01;8.40;99.90
43671;DHT22;29267;50.906;7.248;2024-02-14T07:35:27;8.40;99.90
43671;DHT22;29267;50.906;7.248;2024-02-14T07:37:52;8.50;99.90
43671;DHT22;29267;50.906;7.248;2024-02-14T07:40:18;8.50;99.90
43671;DHT22;29267;50.906;7.248;2024-02-14T07:42:44;8.60;99.90
43671;DHT22;29267;50.906;7.248;2024-02-14T07:45:10;8.70;99.90
43671;DHT22;29267;50.906;7.248;2024-02-14T07:47:35;8.60;99.90
43671;DHT22;29267;50.906;7.248;2024-02-14T07:50:01;8.70;99.90
43671;DHT22;29267;50.906;7.248;2024-02-14T07:52:28;8.70;99.90
43671;DHT22;29267;50.906;7.248;2024-02-14T07:54:54;8.70;99.90
43671;DHT22;29267;50.906;7.248;2024-02-14T07:57:22;8.70;99.90
43671;DHT22;29267;50.906;7.248;2024-02-14T07:59:48;8.80;99.90
43671;DHT22;29267;50.906;7.248;2024-02-14T08:02:14;8.80;99.90
43671;DHT22;29267;50.906;7.248;2024-02-14T08:04:39;8.80;99.90
43671;DHT22;29267;50.906;7.248;2024-02-14T08:07:05;8.80;99.90
43671;DHT22;29267;50.906;7.248;2024-02-14T08:09:31;8.80;99.90
43671;DHT22;29267;50.906;7.248;2024-02-14T08:11:56;8.80;99.90
43671;DHT22;29267;50.906;7.248;2024-02-14T08:14:22;8.80;99.90
43671;DHT22;29267;50.906;7.248;2024-02-14T08:16:47;8.90;99.90
43671;DHT22;29267;50.906;7.248;2024-02-14T08:19:13;8.90;99.90
43671;DHT22;29267;50.906;7.248;2024-02-14T08:21:39;8.90;99.90
43671;DHT22;29267;50.906;7.248;2024-02-14T08:24:06;8.90;99.90
43671;DHT22;29267;50.906;7.248;2024-02-14T08:26:31;8.90;99.90
43671;DHT22;29267;50.906;7.248;2024-02-14T08:28:57;8.90;99.90
43671;DHT22;29267;50.906;7.248;2024-02-14T08:31:23;9.00;99.90
43671;DHT22;29267;50.906;7.248;2024-02-14T08:33:49;9.00;99.90
43671;DHT22;29267;50.906;7.248;2024-02-14T08:36:15;9.00;99.90
43671;DHT22;29267;50.906;7.248;2024-02-14T08:38:42;9.00;99.90
43671;DHT22;29267;50.906;7.248;2024-02-14T08:41:07;9.00;99.90
43671;DHT22;29267;50.906;7.248;2024-02-14T08:43:33;9.10;99.90
43671;DHT22;29267;50.906;7.248;2024-02-14T08:45:59;9.20;99.90
43671;DHT22;29267;50.906;7.248;2024-02-14T08:48:25;9.30;99.90
43671;DHT22;29267;50.906;7.248;2024-02-14T08:50:52;9.40;99.90
43671;DHT22;29267;50.906;7.248;2024-02-14T08:53:18;9.50;99.90
43671;DHT22;29267;50.906;7.248;2024-02-14T08:55:44;9.60;99.90
43671;DHT22;29267;50.906;7.248;2024-02-14T08:58:09;9.70;99.90
43671;DHT22;29267;50.906;7.248;2024-02-14T09:00:36;9.80;99.90
43671;DHT22;29267;50.906;7.248;2024-02-14T09:03:03;9.80;99.90
43671;DHT22;29267;50.906;7.248;2024-02-14T09:05:29;9.90;99.90
43671;DHT22;29267;50.906;7.248;2024-02-14T09:07:55;9.90;99.90
43671;DHT22;29267;50.906;7.248;2024-02-14T09:10:21;10.00;99.90
43671;DHT22;29267;50.906;7.248;2024-02-14T09:12:47;10.10;99.90
43671;DHT22;29267;50.906;7.248;2024-02-14T09:15:13;10.10;99.90
43671;DHT22;29267;50.906;7.248;2024-02-14T09:17:39;10.30;99.90
43671;DHT22;29267;50.906;7.248;2024-02-14T09:20:07;10.40;99.90
43671;DHT22;29267;50.906;7.248;2024-02-14T09:22:35;10.60;99.90
43671;DHT22;29267;50.906;7.248;2024-02-14T09:25:01;10.60;99.90
43671;DHT22;29267;50.906;7.248;2024-02-14T09:27:30;10.70;99.90
43671;DHT22;29267;50.906;7.248;2024-02-14T09:29:55;10.70;99.90
43671;DHT22;29267;50.906;7.248;2024-02-14T09:32:21;10.80;99.90
43671;DHT22;29267;50.906;7.248;2024-02-14T09:34:47;10.90;99.90
43671;DHT22;29267;50.906;7.248;2024-02-14T09:37:12;11.00;99.90
43671;DHT22;29267;50.906;7.248;2024-02-14T09:39:38;11.20;99.90
43671;DHT22;29267;50.906;7.248;2024-02-14T09:42:09;11.30;99.90
43671;DHT22;29267;50.906;7.248;2024-02-14T09:44:35;11.50;99.90
43671;DHT22;29267;50.906;7.248;2024-02-14T09:47:02;11.80;99.90
43671;DHT22;29267;50.906;7.248;2024-02-14T09:49:30;11.90;99.90
43671;DHT22;29267;50.906;7.248;2024-02-14T09:51:56;12.00;99.90
43671;DHT22;29267;50.906;7.248;2024-02-14T09:54:23;12.00;99.90
43671;DHT22;29267;50.906;7.248;2024-02-14T09:56:50;12.00;99.90
43671;DHT22;29267;50.906;7.248;2024-02-14T09:59:19;12.30;99.90
43671;DHT22;29267;50.906;7.248;2024-02-14T10:01:46;12.40;99.90
43671;DHT22;29267;50.906;7.248;2024-02-14T10:10:59;12.70;99.90
43671;DHT22;29267;50.906;7.248;2024-02-14T10:13:28;12.80;99.90
43671;DHT22;29267;50.906;7.248;2024-02-14T10:15:55;12.90;99.90
43671;DHT22;29267;50.906;7.248;2024-02-14T10:18:21;12.90;99.90
43671;DHT22;29267;50.906;7.248;2024-02-14T10:20:58;12.80;99.90
43671;DHT22;29267;50.906;7.248;2024-02-14T10:23:23;12.70;99.90
43671;DHT22;29267;50.906;7.248;2024-02-14T10:25:50;12.50;99.90
43671;DHT22;29267;50.906;7.248;2024-02-14T10:28:18;12.40;99.90
43671;DHT22;29267;50.906;7.248;2024-02-14T10:30:47;12.40;99.90
43671;DHT22;29267;50.906;7.248;2024-02-14T10:33:15;12.30;99.90
43671;DHT22;29267;50.906;7.248;2024-02-14T10:35:41;12.30;99.90
43671;DHT22;29267;50.906;7.248;2024-02-14T10:38:08;12.20;99.90
43671;DHT22;29267;50.906;7.248;2024-02-14T10:40:36;12.20;99.90
43671;DHT22;29267;50.906;7.248;2024-02-14T10:43:06;12.20;99.90
43671;DHT22;29267;50.906;7.248;2024-02-14T10:45:37;12.30;99.90
43671;DHT22;29267;50.906;7.248;2024-02-14T10:48:04;12.30;99.90
43671;DHT22;29267;50.906;7.248;2024-02-14T10:50:33;12.20;99.90
43671;DHT22;29267;50.906;7.248;2024-02-14T10:53:05;12.10;99.90
43671;DHT22;29267;50.906;7.248;2024-02-14T10:55:33;12.10;99.90
43671;DHT22;29267;50.906;7.248;2024-02-14T10:57:59;12.10;99.90
43671;DHT22;29267;50.906;7.248;2024-02-14T11:00:25;12.00;99.90
43671;DHT22;29267;50.906;7.248;2024-02-14T11:02:51;12.00;99.90
43671;DHT22;29267;50.906;7.248;2024-02-14T11:05:19;12.00;99.90
43671;DHT22;29267;50.906;7.248;2024-02-14T11:07:48;11.90;99.90
43671;DHT22;29267;50.906;7.248;2024-02-14T11:10:19;11.90;99.90
43671;DHT22;29267;50.906;7.248;2024-02-14T11:12:46;12.00;99.90
43671;DHT22;29267;50.906;7.248;2024-02-14T11:15:22;12.00;99.90
43671;DHT22;29267;50.906;7.248;2024-02-14T11:17:50;12.00;99.90
43671;DHT22;29267;50.906;7.248;2024-02-14T11:20:18;12.00;99.90
43671;DHT22;29267;50.906;7.248;2024-02-14T11:22:54;12.10;99.90
43671;DHT22;29267;50.906;7.248;2024-02-14T11:25:28;12.10;99.90
43671;DHT22;29267;50.906;7.248;2024-02-14T11:27:53;12.30;99.90
43671;DHT22;29267;50.906;7.248;2024-02-14T11:30:34;12.40;99.90
43671;DHT22;29267;50.906;7.248;2024-02-14T11:33:12;12.50;99.90
43671;DHT22;29267;50.906;7.248;2024-02-14T11:35:40;12.50;99.90
43671;DHT22;29267;50.906;7.248;2024-02-14T11:38:06;12.50;99.90
43671;DHT22;29267;50.906;7.248;2024-02-14T11:40:32;12.50;99.90
43671;DHT22;29267;50.906;7.248;2024-02-14T11:42:58;12.50;99.90
43671;DHT22;29267;50.906;7.248;2024-02-14T11:45:23;12.60;99.90
43671;DHT22;29267;50.906;7.248;2024-02-14T11:47:49;12.70;99.90
43671;DHT22;29267;50.906;7.248;2024-02-14T11:50:17;12.80;99.90
43671;DHT22;29267;50.906;7.248;2024-02-14T11:52:44;12.80;99.90
43671;DHT22;29267;50.906;7.248;2024-02-14T11:55:10;12.70;99.90
43671;DHT22;29267;50.906;7.248;2024-02-14T11:57:36;12.60;99.90
43671;DHT22;29267;50.906;7.248;2024-02-14T12:00:01;12.60;99.90
43671;DHT22;29267;50.906;7.248;2024-02-14T12:02:27;12.60;99.90
43671;DHT22;29267;50.906;7.248;2024-02-14T12:04:54;12.60;99.90
43671;DHT22;29267;50.906;7.248;2024-02-14T12:07:22;12.70;99.90
43671;DHT22;29267;50.906;7.248;2024-02-14T12:09:47;12.60;99.90
43671;DHT22;29267;50.906;7.248;2024-02-14T12:12:15;12.70;99.90
43671;DHT22;29267;50.906;7.248;2024-02-14T12:14:43;12.60;99.90
43671;DHT22;29267;50.906;7.248;2024-02-14T12:17:10;12.70;99.90
43671;DHT22;29267;50.906;7.248;2024-02-14T12:19:35;12.60;99.90
43671;DHT22;29267;50.906;7.248;2024-02-14T12:22:11;12.60;99.90
43671;DHT22;29267;50.906;7.248;2024-02-14T12:24:43;12.60;99.90
43671;DHT22;29267;50.906;7.248;2024-02-14T12:27:09;12.50;99.90
43671;DHT22;29267;50.906;7.248;2024-02-14T12:29:35;12.50;99.90
43671;DHT22;29267;50.906;7.248;2024-02-14T12:32:07;12.50;99.90
43671;DHT22;29267;50.906;7.248;2024-02-14T12:34:33;12.50;99.90
43671;DHT22;29267;50.906;7.248;2024-02-14T12:36:59;12.50;99.90
43671;DHT22;29267;50.906;7.248;2024-02-14T12:39:29;12.40;99.90
43671;DHT22;29267;50.906;7.248;2024-02-14T12:41:55;12.50;99.90
43671;DHT22;29267;50.906;7.248;2024-02-14T12:44:21;12.40;99.90
43671;DHT22;29267;50.906;7.248;2024-02-14T12:46:46;12.40;99.90
43671;DHT22;29267;50.906;7.248;2024-02-14T12:49:12;12.40;99.90
43671;DHT22;29267;50.906;7.248;2024-02-14T12:51:38;12.40;99.90
43671;DHT22;29267;50.906;7.248;2024-02-14T12:54:04;12.40;99.90
43671;DHT22;29267;50.906;7.248;2024-02-14T12:56:31;12.40;99.90
43671;DHT22;29267;50.906;7.248;2024-02-14T12:58:57;12.40;99.90
43671;DHT22;29267;50.906;7.248;2024-02-14T13:01:22;12.40;99.90
43671;DHT22;29267;50.906;7.248;2024-02-14T13:03:48;12.50;99.90
43671;DHT22;29267;50.906;7.248;2024-02-14T13:06:14;12.50;99.90
43671;DHT22;29267;50.906;7.248;2024-02-14T13:08:39;12.50;99.90
43671;DHT22;29267;50.906;7.248;2024-02-14T13:11:05;12.60;99.90
43671;DHT22;29267;50.906;7.248;2024-02-14T13:13:34;12.60;99.90
43671;DHT22;29267;50.906;7.248;2024-02-14T13:16:00;12.60;99.90
43671;DHT22;29267;50.906;7.248;2024-02-14T13:18:25;12.60;99.90
43671;DHT22;29267;50.906;7.248;2024-02-14T13:20:51;12.50;99.90
43671;DHT22;29267;50.906;7.248;2024-02-14T13:23:27;12.50;99.90
43671;DHT22;29267;50.906;7.248;2024-02-14T13:25:53;12.50;99.90
43671;DHT22;29267;50.906;7.248;2024-02-14T13:28:19;12.50;99.90
43671;DHT22;29267;50.906;7.248;2024-02-14T13:30:45;12.50;99.90
43671;DHT22;29267;50.906;7.248;2024-02-14T13:33:13;12.50;99.90
43671;DHT22;29267;50.906;7.248;2024-02-14T13:35:39;12.50;99.90
43671;DHT22;29267;50.906;7.248;2024-02-14T13:38:07;12.50;99.90
43671;DHT22;29267;50.906;7.248;2024-02-14T13:40:35;12.40;99.90
43671;DHT22;29267;50.906;7.248;2024-02-14T13:43:00;12.40;99.90
43671;DHT22;29267;50.906;7.248;2024-02-14T13:45:26;12.50;99.90
43671;DHT22;29267;50.906;7.248;2024-02-14T13:48:04;12.40;99.90
43671;DHT22;29267;50.906;7.248;2024-02-14T13:50:30;12.40;99.90
43671;DHT22;29267;50.906;7.248;2024-02-14T13:52:56;12.30;99.90
43671;DHT22;29267;50.906;7.248;2024-02-14T13:55:21;12.30;99.90
43671;DHT22;29267;50.906;7.248;2024-02-14T13:57:47;12.20;99.90
43671;DHT22;29267;50.906;7.248;2024-02-14T14:00:13;12.20;99.90
43671;DHT22;29267;50.906;7.248;2024-02-14T14:02:38;12.20;99.90
43671;DHT22;29267;50.906;7.248;2024-02-14T14:05:10;12.20;99.90
43671;DHT22;29267;50.906;7.248;2024-02-14T14:07:39;12.20;99.90
43671;DHT22;29267;50.906;7.248;2024-02-14T14:10:06;12.20;99.90
43671;DHT22;29267;50.906;7.248;2024-02-14T14:12:32;12.10;99.90
43671;DHT22;29267;50.906;7.248;2024-02-14T14:14:59;12.10;99.90
43671;DHT22;29267;50.906;7.248;2024-02-14T14:17:24;12.00;99.90
43671;DHT22;29267;50.906;7.248;2024-02-14T14:19:50;11.90;99.90
43671;DHT22;29267;50.906;7.248;2024-02-14T14:22:16;11.80;99.90
43671;DHT22;29267;50.906;7.248;2024-02-14T14:24:42;11.70;99.90
43671;DHT22;29267;50.906;7.248;2024-02-14T14:27:08;11.60;99.90
43671;DHT22;29267;50.906;7.248;2024-02-14T14:29:43;11.60;99.90
43671;DHT22;29267;50.906;7.248;2024-02-14T14:32:09;11.50;99.90
43671;DHT22;29267;50.906;7.248;2024-02-14T14:34:35;11.50;99.90
43671;DHT22;29267;50.906;7.248;2024-02-14T14:37:02;11.50;99.90
43671;DHT22;29267;50.906;7.248;2024-02-14T14:39:28;11.50;99.90
43671;DHT22;29267;50.906;7.248;2024-02-14T14:41:53;11.40;99.90
43671;DHT22;29267;50.906;7.248;2024-02-14T14:44:24;11.30;99.90
43671;DHT22;29267;50.906;7.248;2024-02-14T14:46:50;11.30;99.90
43671;DHT22;29267;50.906;7.248;2024-02-14T14:49:16;11.20;99.90
43671;DHT22;29267;50.906;7.248;2024-02-14T14:51:42;11.10;99.90
43671;DHT22;29267;50.906;7.248;2024-02-14T14:54:08;11.10;99.90
43671;DHT22;29267;50.906;7.248;2024-02-14T14:56:34;11.00;99.90
43671;DHT22;29267;50.906;7.248;2024-02-14T14:58:59;11.00;99.90
43671;DHT22;29267;50.906;7.248;2024-02-14T15:01:29;11.00;99.90
43671;DHT22;29267;50.906;7.248;2024-02-14T15:03:55;10.90;99.90
43671;DHT22;29267;50.906;7.248;2024-02-14T15:06:21;10.80;99.90
43671;DHT22;29267;50.906;7.248;2024-02-14T15:08:47;10.80;99.90
43671;DHT22;29267;50.906;7.248;2024-02-14T15:11:13;10.70;99.90
43671;DHT22;29267;50.906;7.248;2024-02-14T15:13:42;10.70;99.90
43671;DHT22;29267;50.906;7.248;2024-02-14T15:16:08;10.70;99.90
43671;DHT22;29267;50.906;7.248;2024-02-14T15:18:34;10.70;99.90
43671;DHT22;29267;50.906;7.248;2024-02-14T15:21:00;10.70;99.90
43671;DHT22;29267;50.906;7.248;2024-02-14T15:23:27;10.70;99.90
43671;DHT22;29267;50.906;7.248;2024-02-14T15:25:52;10.60;99.90
43671;DHT22;29267;50.906;7.248;2024-02-14T15:28:27;10.60;99.90
43671;DHT22;29267;50.906;7.248;2024-02-14T15:30:53;10.60;99.90
43671;DHT22;29267;50.906;7.248;2024-02-14T15:33:37;10.60;99.90
43671;DHT22;29267;50.906;7.248;2024-02-14T15:36:03;10.70;99.90
43671;DHT22;29267;50.906;7.248;2024-02-14T15:38:28;10.60;99.90
43671;DHT22;29267;50.906;7.248;2024-02-14T15:40:55;10.60;99.90
43671;DHT22;29267;50.906;7.248;2024-02-14T15:43:27;10.60;99.90